Time;durP1;ratioP1;P1;durP2;ratioP2;P2;SDS_P1;SDS_P2;PMS_P1;PMS_P2;Temp;Humidity;BMP_temperature;BMP_pressure;BME280_temperature;BME280_humidity;BME280_pressure;Samples;Min_cycle;Max_cycle;Signal;HPM_P1;HPM_P2
2022/07/15 00:00:40;;;;;;;4.37;2.52;;;;;;;16.02;100.00;99245.36;1747399;81;21413;-59
2022/07/15 00:03:06;;;;;;;;;;;;;;;16.03;100.00;99253.03;1747805;81;21525;-59
2022/07/15 00:05:32;;;;;;;6.08;2.87;;;;;;;16.06;100.00;99246.34;1750333;81;20110;-59
2022/07/15 00:08:00;;;;;;;5.33;2.77;;;;;;;16.02;100.00;99233.00;1744880;81;21035;-59
2022/07/15 00:10:28;;;;;;;6.70;2.50;;;;;;;16.02;100.00;99232.19;1742245;82;21043;-59
2022/07/15 00:12:58;;;;;;;4.15;2.30;;;;;;;16.02;100.00;99233.56;1746770;81;21032;-59
2022/07/15 00:15:28;;;;;;;5.83;2.72;;;;;;;16.04;100.00;99229.39;1744516;82;21038;-59
2022/07/15 00:17:56;;;;;;;4.42;2.37;;;;;;;16.07;100.00;99227.38;1745885;81;21015;-59
2022/07/15 00:20:22;;;;;;;5.53;2.50;;;;;;;16.10;100.00;99226.73;1742052;82;21522;-59
2022/07/15 00:22:48;;;;;;;3.33;2.58;;;;;;;16.13;100.00;99213.73;1743292;82;21036;-59
2022/07/15 00:25:15;;;;;;;3.08;2.77;;;;;;;16.15;100.00;99219.73;1741834;82;21043;-59
2022/07/15 00:27:58;;;;;;;8.33;2.98;;;;;;;16.11;100.00;99216.56;1742970;82;21505;-59
2022/07/15 00:30:31;;;;;;;4.62;2.80;;;;;;;16.11;100.00;99211.07;1741846;82;21072;-59
2022/07/15 00:32:58;;;;;;;4.72;2.70;;;;;;;16.09;100.00;99214.13;1736387;81;21567;-59
2022/07/15 00:35:24;;;;;;;3.47;2.40;;;;;;;16.11;100.00;99218.75;1747155;81;21027;-59
2022/07/15 00:37:51;;;;;;;3.35;2.35;;;;;;;16.15;100.00;99213.42;1739170;82;21531;-59
2022/07/15 00:40:18;;;;;;;4.58;2.65;;;;;;;16.22;100.00;99213.75;1745591;80;21091;-59
2022/07/15 00:42:46;;;;;;;4.45;2.50;;;;;;;16.28;100.00;99210.53;1748457;81;21092;-60
2022/07/15 00:45:16;;;;;;;4.83;2.50;;;;;;;16.36;100.00;99206.98;1744653;81;21059;-59
2022/07/15 00:47:45;;;;;;;3.35;2.15;;;;;;;16.42;100.00;99207.63;1742569;81;21003;-59
2022/07/15 00:50:13;;;;;;;3.92;2.45;;;;;;;16.50;100.00;99211.50;1715879;82;21520;-60
2022/07/15 00:52:41;;;;;;;3.98;2.62;;;;;;;16.55;100.00;99212.70;1750396;81;20964;-59
2022/07/15 00:55:12;;;;;;;4.30;2.80;;;;;;;16.57;100.00;99220.11;1744284;82;21641;-59
2022/07/15 00:57:42;;;;;;;3.60;2.60;;;;;;;16.63;100.00;99216.05;1727475;82;20995;-59
2022/07/15 01:00:12;;;;;;;4.10;2.72;;;;;;;16.72;100.00;99215.50;1740486;82;21614;-59
2022/07/15 01:02:43;;;;;;;3.87;2.52;;;;;;;16.76;100.00;99213.12;1745625;82;20944;-59
2022/07/15 01:05:10;;;;;;;4.08;2.58;;;;;;;16.78;100.00;99210.88;1744653;81;21098;-59
2022/07/15 01:07:38;;;;;;;4.37;2.87;;;;;;;16.79;100.00;99208.35;1744453;81;21000;-60
2022/07/15 01:10:07;;;;;;;5.17;3.00;;;;;;;16.80;100.00;99205.85;1747816;81;21622;-59
2022/07/15 01:12:35;;;;;;;6.35;3.20;;;;;;;16.75;100.00;99204.66;1749361;81;21563;-59
2022/07/15 01:15:01;;;;;;;4.10;3.02;;;;;;;16.67;100.00;99199.16;1744310;81;21108;-59
2022/07/15 01:17:28;;;;;;;6.55;2.80;;;;;;;16.62;100.00;99202.88;1729225;82;21093;-59
2022/07/15 01:19:55;;;;;;;4.95;2.75;;;;;;;16.62;100.00;99195.19;1746382;81;21087;-60
2022/07/15 01:22:23;;;;;;;4.05;2.80;;;;;;;16.62;100.00;99201.50;1741091;81;21095;-60
2022/07/15 01:24:50;;;;;;;4.12;2.67;;;;;;;16.62;100.00;99207.56;1723588;82;21024;-59
2022/07/15 01:27:19;;;;;;;4.90;2.87;;;;;;;16.61;100.00;99199.09;1742902;82;21058;-59
2022/07/15 01:29:46;;;;;;;3.72;2.55;;;;;;;16.64;100.00;99196.50;1744439;81;21546;-59
2022/07/15 01:32:13;;;;;;;3.55;2.40;;;;;;;16.68;100.00;99198.85;1730754;82;21103;-59
2022/07/15 01:34:39;;;;;;;4.92;2.90;;;;;;;16.71;100.00;99205.06;1747226;80;21028;-60
2022/07/15 01:37:07;;;;;;;3.75;3.15;;;;;;;16.69;100.00;99200.44;1726144;82;21095;-59
2022/07/15 01:39:35;;;;;;;4.85;2.87;;;;;;;16.70;100.00;99205.38;1746645;80;21604;-60
2022/07/15 01:42:01;;;;;;;4.45;3.08;;;;;;;16.72;100.00;99198.41;1747341;82;21007;-59
2022/07/15 01:44:29;;;;;;;5.65;2.60;;;;;;;16.74;100.00;99200.29;1743710;81;21068;-59
2022/07/15 01:46:55;;;;;;;6.95;3.15;;;;;;;16.77;100.00;99197.45;1736336;82;21867;-59
2022/07/15 01:49:26;;;;;;;4.00;2.45;;;;;;;16.81;100.00;99194.30;1743820;82;21610;-59
2022/07/15 01:51:56;;;;;;;3.55;2.45;;;;;;;16.85;100.00;99189.77;1698326;82;21473;-59
2022/07/15 01:54:23;;;;;;;2.90;2.45;;;;;;;16.91;100.00;99194.77;1744031;82;21040;-59
2022/07/15 01:56:50;;;;;;;4.67;3.00;;;;;;;16.97;100.00;99198.73;1745879;82;21546;-59
2022/07/15 01:59:17;;;;;;;4.47;2.72;;;;;;;16.95;100.00;99199.05;1747027;81;21034;-59
2022/07/15 02:01:43;;;;;;;7.62;3.27;;;;;;;16.97;100.00;99196.77;1739612;82;21071;-59
2022/07/15 02:04:12;;;;;;;3.55;2.58;;;;;;;16.99;100.00;99191.76;1744667;81;21066;-59
2022/07/15 02:06:40;;;;;;;2.98;2.50;;;;;;;17.02;100.00;99193.85;1751317;81;21030;-59
2022/07/15 02:09:07;;;;;;;3.33;2.55;;;;;;;17.07;100.00;99192.87;1738347;82;21070;-59
2022/07/15 02:11:36;;;;;;;4.87;2.72;;;;;;;17.11;100.00;99187.75;1747050;82;21527;-59
2022/07/15 02:14:02;;;;;;;4.62;2.85;;;;;;;17.14;100.00;99183.00;1737474;82;21035;-59
2022/07/15 02:16:30;;;;;;;4.35;3.05;;;;;;;17.13;100.00;99184.69;1709109;82;21078;-59
2022/07/15 02:18:58;;;;;;;3.27;2.45;;;;;;;17.15;100.00;99178.28;1710440;82;21129;-59
2022/07/15 02:21:26;;;;;;;5.97;2.70;;;;;;;17.20;100.00;99173.42;1724757;82;21046;-59
2022/07/15 02:23:53;;;;;;;3.30;2.47;;;;;;;17.24;100.00;99171.63;1709598;82;21096;-59
2022/07/15 02:26:20;;;;;;;3.35;2.47;;;;;;;17.27;100.00;99170.97;1709129;82;21078;-59
2022/07/15 02:28:47;;;;;;;4.10;2.45;;;;;;;17.32;100.00;99163.11;1673636;84;21802;-59
2022/07/15 02:31:14;;;;;;;3.67;2.70;;;;;;;17.37;100.00;99169.23;1691364;82;21048;-59
2022/07/15 02:33:44;;;;;;;5.05;2.90;;;;;;;17.37;100.00;99174.73;1725858;81;21124;-60
2022/07/15 02:36:10;;;;;;;3.50;2.45;;;;;;;17.41;100.00;99169.38;1706543;82;21094;-59
2022/07/15 02:38:38;;;;;;;4.00;2.80;;;;;;;17.48;100.00;99168.29;1710381;84;21186;-59
2022/07/15 02:41:04;;;;;;;3.12;2.52;;;;;;;17.55;100.00;99165.83;1714634;82;21113;-59
2022/07/15 02:43:32;;;;;;;4.22;2.58;;;;;;;17.60;100.00;99166.25;1690394;84;21604;-59
2022/07/15 02:45:59;;;;;;;3.52;2.60;;;;;;;17.62;100.00;99170.84;1719159;82;21093;-59
2022/07/15 02:48:26;;;;;;;5.53;2.72;;;;;;;17.57;100.00;99169.08;1720366;81;21130;-59
2022/07/15 02:50:53;;;;;;;4.17;2.65;;;;;;;17.54;100.00;99171.09;1712671;82;21158;-59
2022/07/15 02:53:21;;;;;;;3.33;2.65;;;;;;;17.57;100.00;99162.80;1724554;81;21087;-59
2022/07/15 02:55:48;;;;;;;3.98;2.55;;;;;;;17.59;100.00;99166.81;1722786;82;21038;-59
2022/07/15 02:58:15;;;;;;;4.17;3.02;;;;;;;17.55;100.00;99166.39;1725815;82;21114;-59
2022/07/15 03:00:42;;;;;;;4.40;3.15;;;;;;;17.51;100.00;99172.31;1717426;82;21026;-59
2022/07/15 03:03:09;;;;;;;6.25;3.17;;;;;;;17.43;100.00;99170.65;1726023;81;20983;-59
2022/07/15 03:05:39;;;;;;;7.03;3.75;;;;;;;17.37;100.00;99180.23;1714897;82;20979;-59
2022/07/15 03:08:08;;;;;;;6.03;3.30;;;;;;;17.33;100.00;99179.27;1723511;81;20999;-59
2022/07/15 03:10:34;;;;;;;6.05;3.25;;;;;;;17.34;100.00;99185.02;1719073;82;20976;-60
2022/07/15 03:13:02;;;;;;;6.22;3.12;;;;;;;17.39;100.00;99185.42;1730366;81;21522;-59
2022/07/15 03:15:28;;;;;;;6.70;3.10;;;;;;;17.45;100.00;99195.66;1718419;82;21063;-59
2022/07/15 03:17:55;;;;;;;5.42;3.17;;;;;;;17.45;100.00;99212.98;1691623;84;21102;-59
2022/07/15 03:20:22;;;;;;;4.15;2.87;;;;;;;17.40;100.00;99227.72;1713214;83;21005;-60
2022/07/15 03:22:49;;;;;;;5.75;2.80;;;;;;;17.39;100.00;99228.84;1751607;81;21509;-60
2022/07/15 03:25:16;;;;;;;6.85;2.50;;;;;;;17.34;100.00;99236.48;1737004;81;21034;-60
2022/07/15 03:27:43;;;;;;;4.55;2.65;;;;;;;17.29;100.00;99227.83;1747031;82;21046;-60
2022/07/15 03:30:12;;;;;;;5.37;2.95;;;;;;;17.30;100.00;99222.57;1748821;82;21530;-59
2022/07/15 03:32:38;;;;;;;4.90;2.90;;;;;;;17.36;100.00;99219.88;1735852;82;21504;-60
2022/07/15 03:35:06;;;;;;;6.08;2.87;;;;;;;17.40;100.00;99225.53;1752069;82;21119;-59
2022/07/15 03:37:34;;;;;;;5.83;2.72;;;;;;;17.41;100.00;99212.02;1752000;82;21044;-60
2022/07/15 03:40:01;;;;;;;4.78;2.52;;;;;;;17.42;100.00;99208.14;1752626;80;21039;-60
2022/07/15 03:42:28;;;;;;;4.87;3.08;;;;;;;17.42;100.00;99217.77;1745438;81;21034;-59
2022/07/15 03:44:55;;;;;;;7.08;3.25;;;;;;;17.43;100.00;99213.86;1749901;81;21108;-59
2022/07/15 03:47:22;;;;;;;7.70;2.90;;;;;;;17.45;100.00;99204.72;1752028;82;21062;-59
2022/07/15 03:49:48;;;;;;;4.87;3.15;;;;;;;17.51;100.00;99201.20;1747948;81;21067;-59
2022/07/15 03:52:16;;;;;;;5.03;3.12;;;;;;;17.56;100.00;99195.00;1751945;82;21117;-59
2022/07/15 03:54:42;;;;;;;;;;;;;;;17.60;100.00;99195.15;1729802;82;21112;-59
2022/07/15 03:57:10;;;;;;;6.17;3.15;;;;;;;17.66;100.00;99178.67;1752034;82;20151;-59
2022/07/15 03:59:38;;;;;;;5.30;3.42;;;;;;;17.68;100.00;99154.37;1751676;81;21116;-59
2022/07/15 04:02:04;;;;;;;5.15;3.20;;;;;;;17.72;100.00;99139.61;1751958;82;21015;-60
2022/07/15 04:04:31;;;;;;;8.08;4.40;;;;;;;17.77;100.00;99142.19;1752398;81;21125;-60
2022/07/15 04:06:58;;;;;;;12.85;6.55;;;;;;;17.81;100.00;99134.07;1727958;82;21030;-60
2022/07/15 04:09:24;;;;;;;;;;;;;;;17.84;100.00;99126.52;1754539;80;21079;-60
2022/07/15 04:11:51;;;;;;;8.53;4.45;;;;;;;17.86;100.00;99131.91;1747117;82;20107;-59
2022/07/15 04:14:22;;;;;;;6.03;4.30;;;;;;;17.82;100.00;99139.79;1752374;80;21048;-60
2022/07/15 04:16:47;;;;;;;6.35;4.25;;;;;;;17.84;100.00;99155.42;1752198;81;21050;-60
2022/07/15 04:19:22;;;;;;;5.83;3.70;;;;;;;17.85;100.00;99153.70;1753112;81;21066;-60
2022/07/15 04:21:51;;;;;;;6.62;3.47;;;;;;;17.92;100.00;99156.52;1753962;81;21019;-60
2022/07/15 04:24:17;;;;;;;7.22;3.70;;;;;;;18.00;100.00;99159.19;1739599;80;21094;-60
2022/07/15 04:26:44;;;;;;;6.25;3.30;;;;;;;18.09;100.00;99166.03;1752304;81;21066;-60
2022/07/15 04:29:11;;;;;;;9.98;3.58;;;;;;;18.14;100.00;99165.25;1726682;81;21594;-60
2022/07/15 04:31:37;;;;;;;4.78;3.40;;;;;;;18.23;100.00;99163.82;1754719;81;21130;-60
2022/07/15 04:34:06;;;;;;;6.37;3.47;;;;;;;18.35;100.00;99163.30;1752439;81;21599;-60
2022/07/15 04:36:33;;;;;;;4.25;3.20;;;;;;;18.46;100.00;99162.92;1743822;81;21071;-60
2022/07/15 04:39:01;;;;;;;5.67;3.45;;;;;;;18.52;100.00;99158.27;1749469;81;21131;-60
2022/07/15 04:41:29;;;;;;;4.37;3.30;;;;;;;18.55;100.00;99155.40;1754605;81;21046;-60
2022/07/15 04:43:56;;;;;;;6.03;3.10;;;;;;;18.58;100.00;99161.61;1753565;80;21046;-60
2022/07/15 04:46:23;;;;;;;3.42;3.12;;;;;;;18.56;100.00;99170.80;1745522;81;20960;-60
2022/07/15 04:51:37;;;;;;;4.60;3.20;;;;;;;18.52;100.00;99180.31;1751534;81;21031;-60
2022/07/15 04:54:03;;;;;;;4.50;3.22;;;;;;;18.51;100.00;99177.31;1751132;81;21120;-59
2022/07/15 04:56:31;;;;;;;4.85;3.50;;;;;;;18.47;100.00;99165.89;1744332;81;21122;-60
2022/07/15 04:58:59;;;;;;;4.78;3.80;;;;;;;18.40;100.00;99152.09;1754473;80;21142;-60
2022/07/15 05:01:26;;;;;;;3.90;3.50;;;;;;;18.39;100.00;99154.60;1753376;81;21052;-59
2022/07/15 05:03:54;;;;;;;5.65;3.85;;;;;;;18.42;100.00;99138.55;1748478;81;21605;-59
2022/07/15 05:06:21;;;;;;;5.85;3.60;;;;;;;18.47;100.00;99125.92;1753837;81;21020;-59
2022/07/15 05:08:49;;;;;;;4.15;3.65;;;;;;;18.56;100.00;99113.73;1752688;80;21115;-59
2022/07/15 05:11:17;;;;;;;5.35;3.85;;;;;;;18.60;100.00;99114.63;1739205;82;21037;-59
2022/07/15 05:13:47;;;;;;;5.30;3.50;;;;;;;18.61;100.00;99112.12;1722922;82;21049;-59
2022/07/15 05:16:15;;;;;;;5.42;4.10;;;;;;;18.66;100.00;99106.41;1739651;81;21023;-59
2022/07/15 05:18:41;;;;;;;6.25;3.80;;;;;;;18.72;100.00;99099.52;1702856;83;21382;-59
2022/07/15 05:21:08;;;;;;;5.10;3.52;;;;;;;18.78;100.00;99094.02;1692722;82;21007;-59
2022/07/15 05:23:36;;;;;;;4.97;4.00;;;;;;;18.95;100.00;99090.28;1713357;82;21917;-59
2022/07/15 05:26:05;;;;;;;5.12;3.90;;;;;;;19.24;100.00;99080.40;1688467;83;21554;-59
2022/07/15 05:28:34;;;;;;;5.30;3.90;;;;;;;19.61;100.00;99080.42;1713487;82;21094;-59
2022/07/15 05:31:01;;;;;;;5.22;4.58;;;;;;;19.80;100.00;99066.83;1714659;82;21028;-59
2022/07/15 05:33:29;;;;;;;4.30;3.83;;;;;;;19.85;100.00;99070.71;1712454;83;21646;-59
2022/07/15 05:35:57;;;;;;;4.60;4.00;;;;;;;19.88;100.00;99068.05;1712924;83;21491;-59
2022/07/15 05:38:25;;;;;;;5.42;4.08;;;;;;;19.97;100.00;99071.27;1708742;82;21067;-59
2022/07/15 05:40:53;;;;;;;5.08;4.00;;;;;;;20.03;100.00;99063.76;1716951;82;21609;-59
2022/07/15 05:43:20;;;;;;;7.05;4.40;;;;;;;20.10;100.00;99061.20;1723079;82;21090;-59
2022/07/15 05:45:47;;;;;;;5.65;4.53;;;;;;;20.09;100.00;99050.48;1684636;83;21054;-59
2022/07/15 05:48:14;;;;;;;5.92;4.10;;;;;;;20.06;100.00;99049.81;1712122;82;21634;-59
2022/07/15 05:50:43;;;;;;;6.25;4.03;;;;;;;20.23;100.00;99049.51;1708316;82;21584;-59
2022/07/15 05:53:11;;;;;;;4.12;3.72;;;;;;;20.66;100.00;99048.75;1714824;82;21058;-60
2022/07/15 05:55:39;;;;;;;4.67;3.77;;;;;;;21.28;100.00;99055.73;1716215;82;21063;-60
2022/07/15 05:58:07;;;;;;;5.15;4.20;;;;;;;21.92;100.00;99032.86;1701105;83;21012;-60
2022/07/15 06:00:36;;;;;;;4.70;3.85;;;;;;;22.14;100.00;99028.77;1690658;85;21060;-60
2022/07/15 06:03:05;;;;;;;5.20;3.67;;;;;;;22.27;100.00;99021.11;1698368;83;21035;-58
2022/07/15 06:05:32;;;;;;;5.75;3.52;;;;;;;22.39;100.00;99018.78;1712056;82;21610;-59
2022/07/15 06:08:00;;;;;;;7.95;3.90;;;;;;;22.53;100.00;99010.72;1721088;82;21059;-59
2022/07/15 06:10:30;;;;;;;3.95;3.47;;;;;;;22.74;100.00;99000.81;1721279;82;21071;-59
2022/07/15 06:12:58;;;;;;;4.85;3.20;;;;;;;23.06;100.00;99004.13;1716148;82;21054;-59
2022/07/15 06:15:25;;;;;;;4.58;3.30;;;;;;;23.34;100.00;98989.91;1701606;83;21063;-59
2022/07/15 06:17:53;;;;;;;18.27;7.80;;;;;;;23.34;100.00;98982.16;1732081;82;21066;-60
2022/07/15 06:20:22;;;;;;;7.87;4.17;;;;;;;23.31;100.00;98981.72;1746249;82;21486;-61
2022/07/15 06:22:48;;;;;;;4.15;3.42;;;;;;;23.22;100.00;98989.52;1745311;82;21376;-60
2022/07/15 06:25:15;;;;;;;3.98;3.00;;;;;;;23.19;100.00;98985.30;1682861;83;21038;-60
2022/07/15 06:27:43;;;;;;;4.47;3.30;;;;;;;23.20;100.00;98983.53;1713337;84;21936;-60
2022/07/15 06:31:46;;;;;;;4.15;2.92;;;;;;;23.17;100.00;98973.75;1885310;76;22649;-60
2022/07/15 06:34:13;;;;;;;4.83;3.40;;;;;;;23.13;100.00;98973.70;1860325;77;21541;-59
2022/07/15 06:36:41;;;;;;;6.70;4.08;;;;;;;23.10;100.00;98970.29;1859278;77;21050;-61
2022/07/15 06:39:08;;;;;;;17.20;8.70;;;;;;;23.07;100.00;98964.09;1859415;77;21058;-60
2022/07/15 06:41:34;;;;;;;6.58;4.33;;;;;;;23.06;100.00;98965.27;1859329;77;21010;-60
2022/07/15 06:44:01;;;;;;;22.30;9.95;;;;;;;23.06;100.00;98958.32;1856998;77;21031;-61
2022/07/15 06:46:32;;;;;;;28.27;12.37;;;;;;;23.02;100.00;98964.44;1858069;77;21089;-61
2022/07/15 06:48:59;;;;;;;5.50;3.60;;;;;;;23.03;100.00;98969.38;1859277;77;21066;-61
2022/07/15 06:51:29;;;;;;;4.22;3.40;;;;;;;23.03;100.00;98969.38;1775221;80;21628;-60
2022/07/15 06:53:55;;;;;;;4.50;3.27;;;;;;;23.23;100.00;98970.89;1760886;81;21101;-60
2022/07/15 06:56:24;;;;;;;11.08;4.50;;;;;;;23.54;100.00;98965.61;1788478;80;21089;-61
2022/07/15 06:58:51;;;;;;;6.17;4.08;;;;;;;23.85;100.00;98960.24;1788284;80;21074;-62
2022/07/15 07:01:18;;;;;;;5.50;3.22;;;;;;;24.13;100.00;98958.63;1793374;79;21014;-60
2022/07/15 07:03:45;;;;;;;11.90;6.20;;;;;;;24.31;100.00;98958.82;1820669;79;21568;-60
2022/07/15 07:06:12;;;;;;;4.20;3.02;;;;;;;24.49;100.00;98959.80;1820445;79;21109;-61
2022/07/15 07:08:38;;;;;;;4.20;2.83;;;;;;;24.96;100.00;98958.26;1820718;79;21054;-61
2022/07/15 07:11:05;;;;;;;18.25;7.55;;;;;;;25.70;100.00;98959.56;1800715;79;21486;-61
2022/07/15 07:13:33;;;;;;;4.58;2.90;;;;;;;26.51;100.00;98956.25;1760645;80;21116;-61
2022/07/15 07:16:01;;;;;;;6.20;2.50;;;;;;;27.34;100.00;98946.09;1788519;80;21549;-61
2022/07/15 07:18:29;;;;;;;5.72;3.25;;;;;;;28.09;100.00;98936.89;1788362;80;21109;-62
2022/07/15 07:20:56;;;;;;;4.47;2.80;;;;;;;28.77;100.00;98938.05;1792474;79;21077;-62
2022/07/15 07:23:26;;;;;;;2.95;2.40;;;;;;;29.10;100.00;98941.56;1788523;80;21082;-62
2022/07/15 07:25:53;;;;;;;8.28;3.30;;;;;;;29.02;100.00;98944.83;1788595;80;21093;-64
2022/07/15 07:28:20;;;;;;;5.42;2.60;;;;;;;28.94;100.00;98955.33;1788701;80;21066;-63
2022/07/15 07:30:49;;;;;;;8.63;3.50;;;;;;;28.90;100.00;98961.56;1815684;78;21010;-63
2022/07/15 07:33:15;;;;;;;6.78;3.47;;;;;;;29.06;100.00;98969.42;1820886;79;21002;-65
2022/07/15 07:35:42;;;;;;;6.45;3.35;;;;;;;29.08;100.00;98974.82;1820998;79;21007;-67
2022/07/15 07:38:10;;;;;;;7.37;2.87;;;;;;;28.84;100.00;98978.59;1820929;79;21018;-60
2022/07/15 07:40:38;;;;;;;4.08;2.50;;;;;;;28.21;100.00;98981.78;1803350;79;21402;-61
2022/07/15 07:43:05;;;;;;;5.12;3.10;;;;;;;27.56;100.00;98984.61;1771409;81;21075;-60
2022/07/15 07:45:32;;;;;;;4.60;3.00;;;;;;;27.29;100.00;98997.38;1771593;81;21073;-60
2022/07/15 07:47:58;;;;;;;8.05;3.20;;;;;;;26.98;100.00;99009.58;1772893;79;21562;-60
2022/07/15 07:50:25;;;;;;;5.83;2.70;;;;;;;26.67;100.00;98997.75;1801623;79;21066;-61
2022/07/15 07:52:53;;;;;;;6.33;3.20;;;;;;;26.34;100.00;99004.45;1801644;79;21089;-61
2022/07/15 07:55:19;;;;;;;4.12;3.00;;;;;;;26.19;100.00;99023.72;1801762;79;21116;-61
2022/07/15 07:57:51;;;;;;;4.65;3.37;;;;;;;26.03;100.00;99024.63;1805643;78;21042;-61
2022/07/15 08:00:19;;;;;;;4.72;3.50;;;;;;;25.77;100.00;99030.47;1770537;79;21100;-60
2022/07/15 08:02:46;;;;;;;3.80;3.42;;;;;;;25.19;100.00;99034.81;1790124;78;21488;-61
2022/07/15 08:05:14;;;;;;;5.55;4.28;;;;;;;24.65;100.00;99044.44;1795383;78;21153;-61
2022/07/15 08:07:41;;;;;;;5.78;3.83;;;;;;;24.25;100.00;99061.28;1804364;79;20992;-61
2022/07/15 08:10:09;;;;;;;6.22;3.80;;;;;;;23.95;100.00;99069.39;1786768;79;21121;-61
2022/07/15 08:12:37;;;;;;;12.85;7.80;;;;;;;23.70;100.00;99080.16;1802647;79;20979;-61
2022/07/15 08:15:06;;;;;;;9.35;6.17;;;;;;;23.58;100.00;99077.58;1799590;78;21021;-61
2022/07/15 08:17:33;;;;;;;5.87;4.83;;;;;;;23.58;100.00;99077.58;1776044;78;21431;-60
2022/07/15 08:20:01;;;;;;;8.60;5.58;;;;;;;23.50;100.00;99070.30;1787432;79;21057;-59
2022/07/15 08:22:27;;;;;;;8.65;5.40;;;;;;;23.41;100.00;99070.59;1789598;80;21546;-59
2022/07/15 08:24:54;;;;;;;5.20;4.10;;;;;;;23.37;100.00;99075.83;1760577;80;21078;-59
2022/07/15 08:27:22;;;;;;;4.67;3.60;;;;;;;23.28;100.00;99065.77;1787575;80;21042;-61
2022/07/15 08:29:48;;;;;;;5.85;3.58;;;;;;;23.28;100.00;99065.77;1789208;80;21118;-60
2022/07/15 08:32:15;;;;;;;5.25;3.87;;;;;;;23.30;100.00;99067.61;1787089;80;21665;-61
2022/07/15 08:34:42;;;;;;;5.28;3.37;;;;;;;23.25;100.00;99069.88;1796661;79;21115;-60
2022/07/15 08:37:09;;;;;;;3.98;3.20;;;;;;;23.12;100.00;99072.06;1792255;79;20995;-60
2022/07/15 08:39:37;;;;;;;7.35;3.98;;;;;;;23.12;100.00;99072.06;1786986;80;21084;-60
2022/07/15 08:42:04;;;;;;;6.78;4.00;;;;;;;23.01;100.00;99084.95;1780304;80;21519;-60
2022/07/15 08:44:31;;;;;;;5.55;3.87;;;;;;;22.97;100.00;99079.91;1781117;79;21026;-60
2022/07/15 08:47:00;;;;;;;5.33;3.72;;;;;;;22.94;100.00;99083.44;1750171;80;21020;-59
2022/07/15 08:49:29;;;;;;;6.65;5.28;;;;;;;22.94;100.00;99088.18;1770583;81;21014;-60
2022/07/15 08:51:56;;;;;;;6.47;4.00;;;;;;;22.93;100.00;99092.12;1786126;80;21028;-60
2022/07/15 08:54:24;;;;;;;7.80;5.33;;;;;;;22.94;100.00;99093.73;1770201;81;21081;-60
2022/07/15 08:56:50;;;;;;;4.62;3.90;;;;;;;22.98;100.00;99094.02;1809295;79;21038;-59
2022/07/15 08:59:17;;;;;;;5.83;3.90;;;;;;;22.99;100.00;99087.27;1792486;79;21109;-59
2022/07/15 09:01:45;;;;;;;3.85;3.45;;;;;;;23.00;100.00;99092.24;1793657;78;21562;-59
2022/07/15 09:04:13;;;;;;;9.05;3.85;;;;;;;23.00;100.00;99099.98;1783013;80;21039;-59
2022/07/15 09:06:44;;;;;;;6.08;3.75;;;;;;;23.00;100.00;99094.44;1777531;79;21041;-60
2022/07/15 09:09:25;;;;;;;6.62;4.65;;;;;;;23.00;100.00;99094.44;1799402;79;21134;-60
2022/07/15 09:12:06;;;;;;;5.35;3.33;;;;;;;23.01;100.00;99100.80;1760227;79;21077;-60
2022/07/15 09:14:38;;;;;;;3.50;3.20;;;;;;;22.93;100.00;99093.50;1791788;80;21050;-60
2022/07/15 09:17:14;;;;;;;4.78;3.75;;;;;;;22.83;100.00;99099.66;1775421;79;21027;-59
2022/07/15 09:20:11;;;;;;;6.33;4.95;;;;;;;22.78;100.00;99110.47;1787537;79;21071;-61
2022/07/15 09:22:55;;;;;;;4.70;4.20;;;;;;;22.72;100.00;99113.34;1765814;79;21062;-61
2022/07/15 09:25:22;;;;;;;5.33;4.28;;;;;;;22.57;100.00;99123.32;1785157;79;21052;-59
2022/07/15 09:27:49;;;;;;;6.65;4.95;;;;;;;22.35;100.00;99135.16;1791002;79;21368;-60
2022/07/15 09:36:22;;;;;;;7.83;5.10;;;;;;;22.00;100.00;99138.55;1818886;78;21035;-60
2022/07/15 09:39:00;;;;;;;8.88;4.90;;;;;;;21.96;100.00;99140.43;1806458;78;21109;-60
2022/07/15 09:41:38;;;;;;;7.03;4.60;;;;;;;21.89;100.00;99148.55;1802148;78;21074;-60
2022/07/15 09:44:12;;;;;;;5.58;4.03;;;;;;;21.89;100.00;99154.09;1807010;77;21006;-60
2022/07/15 09:46:51;;;;;;;6.25;4.87;;;;;;;21.91;100.00;99149.01;1782743;80;20991;-60
2022/07/15 09:49:26;;;;;;;5.40;4.85;;;;;;;21.92;100.00;99156.17;1824404;78;21046;-60
2022/07/15 09:52:03;;;;;;;8.50;5.53;;;;;;;21.89;100.00;99161.83;1792077;78;20978;-60
2022/07/15 09:54:32;;;;;;;7.72;4.55;;;;;;;21.87;100.00;99167.48;1806440;78;21017;-60
2022/07/15 09:57:04;;;;;;;7.53;4.53;;;;;;;21.85;100.00;99163.70;1809785;78;21486;-61
2022/07/15 09:59:30;;;;;;;6.00;4.60;;;;;;;21.84;100.00;99165.67;1784103;78;21508;-60
2022/07/15 10:01:59;;;;;;;7.45;4.62;;;;;;;21.81;100.00;99166.39;1768840;80;21026;-61
2022/07/15 10:04:27;;;;;;;5.05;4.55;;;;;;;21.83;100.00;99175.71;1775806;79;21037;-60
2022/07/15 10:06:56;;;;;;;4.80;4.25;;;;;;;21.86;100.00;99178.37;1795135;79;21043;-60
2022/07/15 10:09:29;;;;;;;7.55;4.28;;;;;;;21.91;100.00;99184.45;1799348;77;21063;-61
2022/07/15 10:12:15;;;;;;;6.67;4.40;;;;;;;21.95;100.00;99188.12;1808732;78;21024;-60
2022/07/15 10:15:07;;;;;;;6.30;4.62;;;;;;;21.91;100.00;99183.06;1784062;78;21552;-60
2022/07/15 10:18:17;;;;;;;5.95;4.80;;;;;;;21.86;100.00;99190.23;1793604;80;21911;-60
2022/07/15 10:21:06;;;;;;;6.75;4.50;;;;;;;21.82;100.00;99194.30;1813426;78;20944;-59
2022/07/15 10:24:03;;;;;;;6.17;4.67;;;;;;;21.82;100.00;99201.23;1801251;79;21007;-60
2022/07/15 10:27:01;;;;;;;10.00;5.33;;;;;;;21.77;100.00;99208.44;1723909;83;21707;-60
2022/07/15 10:29:30;;;;;;;6.90;4.42;;;;;;;21.68;100.00;99208.41;1721644;83;21161;-58
2022/07/15 10:31:58;;;;;;;5.50;4.40;;;;;;;21.54;100.00;99212.20;1778885;78;20971;-59
2022/07/15 10:34:32;;;;;;;6.03;4.40;;;;;;;21.42;100.00;99213.66;1804663;78;21006;-59
2022/07/15 10:37:03;;;;;;;4.85;4.00;;;;;;;21.31;100.00;99212.80;1787198;79;21015;-59
2022/07/15 10:39:55;;;;;;;5.75;4.22;;;;;;;21.18;100.00;99224.30;1759853;80;21045;-58
2022/07/15 10:42:23;;;;;;;8.35;4.60;;;;;;;21.08;100.00;99231.10;1762301;80;21077;-59
2022/07/15 10:45:06;;;;;;;5.28;4.17;;;;;;;21.04;100.00;99239.10;1773419;80;21031;-60
2022/07/15 10:47:37;;;;;;;7.28;4.30;;;;;;;20.98;100.00;99245.45;1801190;79;21004;-61
2022/07/15 10:50:32;;;;;;;6.72;4.53;;;;;;;20.94;100.00;99257.59;1782967;79;21044;-60
2022/07/15 10:53:18;;;;;;;6.80;4.62;;;;;;;20.96;100.00;99263.56;1761697;78;21034;-60
2022/07/15 10:55:45;;;;;;;8.60;5.03;;;;;;;20.90;100.00;99271.33;1763917;81;21038;-61
2022/07/15 10:58:12;;;;;;;6.37;4.62;;;;;;;20.76;100.00;99266.16;1768514;80;20966;-59
2022/07/15 11:00:40;;;;;;;6.22;4.83;;;;;;;20.63;100.00;99261.02;1787965;78;20982;-59
2022/07/15 11:03:17;;;;;;;5.72;5.12;;;;;;;20.50;100.00;99256.67;1796605;78;20991;-61
2022/07/15 11:06:00;;;;;;;6.80;5.45;;;;;;;20.34;100.00;99249.66;1796304;80;21413;-61
2022/07/15 11:08:40;;;;;;;6.58;5.00;;;;;;;20.27;100.00;99242.50;1772686;78;21078;-62
2022/07/15 11:11:19;;;;;;;8.55;5.22;;;;;;;20.23;100.00;99241.01;1778690;80;21030;-63
2022/07/15 11:13:49;;;;;;;6.35;4.62;;;;;;;20.08;100.00;99236.20;1772144;80;21125;-59
2022/07/15 11:16:19;;;;;;;7.10;4.67;;;;;;;19.91;100.00;99243.33;1796479;80;21062;-59
2022/07/15 11:18:52;;;;;;;6.85;4.58;;;;;;;19.75;100.00;99258.98;1788477;80;21033;-58
2022/07/15 11:21:20;;;;;;;8.30;4.72;;;;;;;19.66;100.00;99277.62;1777640;80;21042;-59
2022/07/15 11:23:49;;;;;;;7.17;4.20;;;;;;;19.59;100.00;99282.30;1763378;80;21014;-59
2022/07/15 11:26:16;;;;;;;5.33;4.60;;;;;;;19.58;100.00;99286.80;1786308;80;21425;-60
2022/07/15 11:28:54;;;;;;;6.33;5.15;;;;;;;19.57;100.00;99293.45;1758583;80;21110;-59
2022/07/15 11:31:22;;;;;;;6.40;4.47;;;;;;;19.60;100.00;99296.34;1784913;80;21043;-57
2022/07/15 11:33:53;;;;;;;5.12;4.20;;;;;;;19.55;100.00;99300.72;1750849;80;21098;-59
2022/07/15 11:36:25;;;;;;;5.45;4.53;;;;;;;19.48;100.00;99305.18;1779444;80;21031;-58
2022/07/15 11:38:49;;;;;;;5.12;4.60;;;;;;;19.49;100.00;99301.25;1788106;80;21098;-58
2022/07/15 11:46:52;;;;;;;5.25;3.75;;;;;;;19.61;100.00;99318.67;1788951;80;20991;-62
2022/07/15 11:49:38;;;;;;;6.35;4.22;;;;;;;19.71;100.00;99320.99;1788713;80;21090;-62
2022/07/15 11:52:07;;;;;;;4.42;3.70;;;;;;;19.81;100.00;99324.69;1784236;80;20971;-62